หน้าหลัก
METAR-TAF:

METAR-TAF

ท่าอากาศยาน :

San José del Cabo, เม็กซิโก

ละติจูด: 23-09N, ลองจิจูด: 109-42W, ความสูง: 109 ม.

การสังเกตสภาพอากาศปัจจุบัน

รายงานได้ทำขึ้นเมื่อ 1 ชั่วโมงและ 20 นาทีที่แล้ว ณ เวลา 14:41 UTC
ลม 6 นอตจากเหนือ
อุณหภูมิ 31°C
ความชื้น 29%
ความกดอากาศ 1007 hPa
ทัศนวิสัย: 16.1 กม.
ท้องฟ้าแจ่มใส

METAR: MMSD 181441Z 35006KT 10SM SKC 31/11 A2973 RMK SLP051 52010 902

เวลา: 10:01 (16:01 UTC)

การพยากรณ์

รายงานได้ทำขึ้นเมื่อ 11 ชั่วโมงและ 40 นาทีที่แล้ว ณ เวลา 04:21 UTC
การพยากรณ์มีผลตั้งแต่วันที่ 18 ณ เวลา 06 UTC จนถึงวันที่ 19 ณ เวลา 06 UTC
ลม 5 นอตจากตะวันตก/ตะวันตกเฉียงเหนือ
ทัศนวิสัย: 10 กม.
ท้องฟ้าแจ่มใส
จาก 18 ณ เวลา 1600 UTC
ลม 12 นอตจากตะวันออกเฉียงใต้
ทัศนวิสัย: 10 กม.
ท้องฟ้าแจ่มใส
จาก 19 ณ เวลา 0200 UTC
ลม 8 นอตจากตะวันตก/ตะวันตกเฉียงเหนือ
ทัศนวิสัย: 10 กม.
ท้องฟ้าแจ่มใส

TAF: MMSD 180421Z 1806/1906 30005KT P6SM SKC FM181600 14012KT P6SM SKC FM190200 30008KT P6SM SKC

สังเกตการณ์สภาพอากาศและพยากรณ์อากาศของสนามบินมากกว่า 4000 แห่ง (รายงาน METAR และ TAF).

สถานีที่ดูได้จะแสดงไว้ด้วยจุดสีเหลืองและสีแดงบนแผนที่.

เลื่อนเมาส์ไปเหนือจุดเพื่อดูชื่อสถานี.

แล้วคลิกเพื่อดูสังเกตการณ์และการพยากรณ์สภาพอากาศ.

ในการเปลี่ยนแผนที่: คลิกที่ปุ่มสีเขียวที่มีกากบาทสีดำเพื่อซูมเข้า; ที่ปุ่มสีเขียวที่มีขีดเพื่อซูมออก; หรือที่ลูกศรสีเขียวเพื่อไปยังแผนที่ที่อยู่ติดกัน.


METAR-TAF: